Queen Of Cowichan — CZ4990 — position and weather

sailwx.info

Track history (hours):
 
Tides and Currents Weather Stations Pressure Air Temp Water Temp Dewpoint Dewpoint Depression Visibility Wind Speed Wind Dir Waves Ship Positions

Queen Of Cowichan

Last reported at 2014-Sep-01 18:34 UTC. Time now 2014-Sep-01 19:02 UTC.
Position N 49°13' W 123°54'.

Length 139 m; draft 5.5 m.

Type: Passenger vessel. MMSI: 316001251.

Date/timePositionNaut miles runAvg speedWind from/ knotsBaromVisibWave heightAir tempDewpointWater temp
2014-Sep-01 18:34N 49°13' W 123°54'2019.7
2014-Sep-01 17:33N 49°19' W 123°26'7 7.1
2014-Sep-01 16:33N 49°23' W 123°16'1413.9
2014-Sep-01 15:34N 49°17' W 123°36'1514.4
2014-Sep-01 14:31N 49°12' W 123°57'0 0.0
2014-Sep-01 13:29N 49°12' W 123°57'0 0.0
2014-Sep-01 12:29N 49°12' W 123°57'0 0.0
2014-Sep-01 11:29N 49°12' W 123°57'0 0.0
2014-Sep-01 10:23N 49°12' W 123°57'0 0.0
2014-Sep-01 09:29N 49°12' W 123°57'0 0.0
2014-Sep-01 08:23N 49°12' W 123°57'0 0.0
2014-Sep-01 07:29N 49°12' W 123°57'0 0.0
2014-Sep-01 06:32N 49°12' W 123°57'0 0.0
2014-Sep-01 05:26N 49°12' W 123°57'0 0.0
2014-Sep-01 04:32N 49°12' W 123°57'0 0.1
2014-Sep-01 03:33N 49°12' W 123°57'1918.7
2014-Sep-01 02:34N 49°18' W 123°30'1010.1
2014-Sep-01 01:33N 49°23' W 123°16'1313.1
2014-Sep-01 00:33N 49°17' W 123°34'1615.3
2014-Aug-31 23:31N 49°12' W 123°57'1010.2
2014-Aug-31 22:34N 49°16' W 123°44'1919.2
2014-Aug-31 21:33N 49°23' W 123°17'5 4.8
2014-Aug-31 20:33N 49°20' W 123°21'2020.5
2014-Aug-31 19:34N 49°14' W 123°51'4 2.9
2014-Aug-31 18:06N 49°12' W 123°57'0 0.0
2014-Aug-31 15:33N 49°12' W 123°57'0 0.0
2014-Aug-31 14:30N 49°12' W 123°57'0 0.0
2014-Aug-31 13:24N 49°12' W 123°57'0 0.0
2014-Aug-31 12:33N 49°12' W 123°57'0 0.0
2014-Aug-31 11:30N 49°12' W 123°57'0 0.0
2014-Aug-31 10:30N 49°12' W 123°57'0 0.0
2014-Aug-31 09:30N 49°12' W 123°57'0 0.0
2014-Aug-31 08:24N 49°12' W 123°57'0 0.0
2014-Aug-31 07:30N 49°12' W 123°57'0 0.0
2014-Aug-31 06:30N 49°12' W 123°57'0 0.0
2014-Aug-31 05:21N 49°12' W 123°57'0 0.0
2014-Aug-31 03:12N 49°12' W 123°57'0 0.0
2014-Aug-31 02:12N 49°12' W 123°57'0 0.0
2014-Aug-31 01:27N 49°12' W 123°57'0 0.0
2014-Aug-31 00:27N 49°12' W 123°57'0 0.0
2014-Aug-30 23:28N 49°12' W 123°57'1415.8
2014-Aug-30 22:33N 49°17' W 123°37'1513.9
2014-Aug-30 21:30N 49°23' W 123°16'5 5.6
2014-Aug-30 20:34N 49°19' W 123°22'2020.3
2014-Aug-30 19:34N 49°14' W 123°52'2 2.4
2014-Aug-30 18:34N 49°13' W 123°56'2019.8
2014-Aug-30 17:34N 49°19' W 123°27'8 7.8
2014-Aug-30 16:33N 49°23' W 123°16'1414.0
2014-Aug-30 15:33N 49°17' W 123°36'1510.7
2014-Aug-30 14:10N 49°12' W 123°57'0 0.0
2014-Aug-30 13:31N 49°12' W 123°57'0 0.0
2014-Aug-30 12:31N 49°12' W 123°57'0 0.0
2014-Aug-30 10:22N 49°12' W 123°57'0 0.0
2014-Aug-30 09:31N 49°12' W 123°57'0 0.0
2014-Aug-30 08:31N 49°12' W 123°57'0 0.0
2014-Aug-30 07:10N 49°12' W 123°57'0 0.0
2014-Aug-30 06:19N 49°12' W 123°57'0 0.0
2014-Aug-30 05:31N 49°12' W 123°57'0 0.0
2014-Aug-30 04:07N 49°12' W 123°57'610.1
2014-Aug-30 03:34N 49°15' W 123°50'2019.6
2014-Aug-30 02:33N 49°20' W 123°21'4 4.3
2014-Aug-30 01:33N 49°23' W 123°17'1818.4
2014-Aug-30 00:33N 49°15' W 123°43'10 9.7
2014-Aug-29 23:30N 49°12' W 123°57'1617.1
2014-Aug-29 22:33N 49°18' W 123°34'13 9.1
2014-Aug-29 21:09N 49°23' W 123°16'1016.8
2014-Aug-29 20:33N 49°17' W 123°29'1919.0
2014-Aug-29 19:32N 49°12' W 123°57'7 7.3
2014-Aug-29 18:34N 49°15' W 123°47'1616.0
2014-Aug-29 17:33N 49°19' W 123°23'6 6.2
2014-Aug-29 16:33N 49°23' W 123°16'1414.0
2014-Aug-29 15:33N 49°16' W 123°35'1514.9
2014-Aug-29 14:33N 49°12' W 123°57'0 0.0
2014-Aug-29 13:27N 49°12' W 123°57'0 0.0
2014-Aug-29 12:27N 49°12' W 123°57'0 0.0
2014-Aug-29 11:27N 49°12' W 123°57'0 0.0
2014-Aug-29 10:15N 49°12' W 123°57'0 0.0
2014-Aug-29 09:33N 49°12' W 123°57'0 0.0
2014-Aug-29 07:30N 49°12' W 123°57'0 0.0
2014-Aug-29 05:18N 49°12' W 123°57'0 0.2
2014-Aug-29 03:34N 49°12' W 123°57'1919.2
2014-Aug-29 02:34N 49°19' W 123°30'10 9.5
2014-Aug-29 01:34N 49°23' W 123°16'1414.0
2014-Aug-29 00:34N 49°17' W 123°36'1511.0
2014-Aug-28 23:12N 49°12' W 123°57'1117.2
2014-Aug-28 22:33N 49°16' W 123°42'1813.8
2014-Aug-28 21:16N 49°23' W 123°16'6 8.2
2014-Aug-28 20:33N 49°19' W 123°23'2019.9
2014-Aug-28 19:33N 49°14' W 123°52'2 2.1
2014-Aug-28 18:33N 49°13' W 123°55'1919.4
2014-Aug-28 17:33N 49°19' W 123°27'8 7.6
2014-Aug-28 16:30N 49°23' W 123°16'1415.2
2014-Aug-28 15:33N 49°16' W 123°36'1514.5
2014-Aug-28 14:33N 49°12' W 123°57'0 0.0
2014-Aug-28 13:23N 49°12' W 123°57'0 0.0
2014-Aug-28 12:29N 49°12' W 123°57'0 0.0
2014-Aug-28 10:11N 49°12' W 123°57'0 0.0
2014-Aug-28 07:26N 49°12' W 123°57'0 0.0
2014-Aug-28 05:32N 49°12' W 123°57'0 0.0
2014-Aug-28 03:29N 49°12' W 123°57'0 0.0
2014-Aug-28 02:14N 49°12' W 123°57'0 0.0
2014-Aug-28 01:05N 49°12' W 123°57'0 0.0
2014-Aug-27 23:23N 49°12' W 123°57'1417.3
2014-Aug-27 22:33N 49°17' W 123°37'1512.6
2014-Aug-27 21:24N 49°23' W 123°16'8 9.9
2014-Aug-27 20:33N 49°18' W 123°27'2019.8
2014-Aug-27 19:33N 49°13' W 123°56'1 0.2
2014-Aug-27 13:06N 49°12' W 123°57'0 0.0
2014-Aug-27 12:33N 49°12' W 123°57'0 0.0
2014-Aug-27 11:33N 49°12' W 123°57'0 0.0
2014-Aug-27 10:33N 49°12' W 123°57'0 0.0
2014-Aug-27 09:33N 49°12' W 123°57'0 0.0
2014-Aug-27 08:33N 49°12' W 123°57'0 0.0
2014-Aug-27 06:21N 49°12' W 123°57'0 0.0
2014-Aug-27 04:33N 49°12' W 123°57'0 0.0
2014-Aug-26 23:15N 49°12' W 123°57'1217.0
2014-Aug-26 22:34N 49°17' W 123°41'1712.9
2014-Aug-26 21:13N 49°23' W 123°16'5 8.0
2014-Aug-26 20:33N 49°19' W 123°22'2019.8
2014-Aug-26 19:33N 49°14' W 123°52'4 2.1
2014-Aug-26 17:32N 49°12' W 123°57'0 0.0
2014-Aug-26 15:28N 49°12' W 123°57'0 0.0
2014-Aug-26 14:16N 49°12' W 123°57'0 0.0
2014-Aug-26 13:25N 49°12' W 123°57'0 0.0
2014-Aug-26 12:04N 49°12' W 123°57'0 0.0
2014-Aug-26 11:28N 49°12' W 123°57'0 0.0
2014-Aug-26 10:28N 49°12' W 123°57'0 0.0
2014-Aug-26 09:22N 49°12' W 123°57'0 0.0
2014-Aug-26 08:22N 49°12' W 123°57'0 0.0
2014-Aug-26 07:28N 49°12' W 123°57'0 0.0
2014-Aug-26 06:28N 49°12' W 123°57'0 0.0
2014-Aug-26 05:28N 49°12' W 123°57'2 0.8
2014-Aug-26 03:34N 49°13' W 123°55'2019.8
2014-Aug-26 02:34N 49°19' W 123°27'8 7.7
2014-Aug-26 01:34N 49°23' W 123°16'1716.6
2014-Aug-26 00:33N 49°16' W 123°40'1211.1
2014-Aug-25 23:27N 49°12' W 123°57'1213.3
2014-Aug-25 22:33N 49°16' W 123°41'1716.9
2014-Aug-25 21:33N 49°23' W 123°16'7 6.6
2014-Aug-25 20:33N 49°19' W 123°24'2019.8
2014-Aug-25 19:33N 49°13' W 123°54'1 0.5
2014-Aug-25 18:33N 49°14' W 123°53'2019.8
2014-Aug-25 17:34N 49°19' W 123°24'6 5.8
2014-Aug-25 16:28N 49°23' W 123°16'1516.9
2014-Aug-25 15:34N 49°15' W 123°37'14 1.9
2014-Aug-25 08:23N 49°12' W 123°57'1416.6
2014-Aug-25 07:33N 49°17' W 123°38'1512.4
2014-Aug-25 06:20N 49°23' W 123°16'1215.2
2014-Aug-25 05:34N 49°17' W 123°32'1712.8
2014-Aug-25 04:13N 49°12' W 123°57'6 9.7
2014-Aug-25 03:33N 49°15' W 123°49'1919.5
2014-Aug-25 02:34N 49°20' W 123°20'3 3.5
2014-Aug-25 01:33N 49°23' W 123°16'1817.8
2014-Aug-25 00:33N 49°15' W 123°41'11 9.2
2014-Aug-24 23:20N 49°12' W 123°57'1316.5
2014-Aug-24 22:34N 49°17' W 123°39'1612.6
2014-Aug-24 21:17N 49°23' W 123°16'6 8.9
2014-Aug-24 20:33N 49°19' W 123°24'2019.6
2014-Aug-24 19:33N 49°13' W 123°53'3 2.6
2014-Aug-24 18:16N 49°12' W 123°57'0 0.0
2014-Aug-24 16:16N 49°12' W 123°57'0 0.0
2014-Aug-24 15:28N 49°12' W 123°57'0 0.0
2014-Aug-24 14:04N 49°12' W 123°57'0 0.0
2014-Aug-24 13:16N 49°12' W 123°57'0 0.0
2014-Aug-24 12:25N 49°12' W 123°57'0 0.0
2014-Aug-24 11:25N 49°12' W 123°57'0 0.0
2014-Aug-24 07:13N 49°12' W 123°57'0 0.0
2014-Aug-24 06:28N 49°12' W 123°57'0 0.0
2014-Aug-23 23:17N 49°12' W 123°57'1317.6
2014-Aug-23 22:33N 49°17' W 123°39'10 4.8
2014-Aug-23 20:33N 49°19' W 123°25'2020.2
2014-Aug-23 19:33N 49°13' W 123°54'4 0.2
2014-Aug-23 03:33N 49°15' W 123°49'2019.6
2014-Aug-23 02:33N 49°20' W 123°21'4 3.7
2014-Aug-23 01:33N 49°23' W 123°16'1716.9
2014-Aug-23 00:34N 49°16' W 123°39'1212.1
2014-Aug-22 23:32N 49°12' W 123°57'1312.8
2014-Aug-22 22:34N 49°17' W 123°40'1613.0
2014-Aug-22 21:18N 49°23' W 123°16'7 9.0
2014-Aug-22 20:33N 49°18' W 123°24'2020.3
2014-Aug-22 19:33N 49°13' W 123°54'0 0.1
2014-Aug-22 18:34N 49°13' W 123°54'  
Track history (hours):
 
Tides and Currents Weather Stations Pressure Air Temp Water Temp Dewpoint Dewpoint Depression Visibility Wind Speed Wind Dir Waves Ship Positions

Queen Of Cowichan

Last reported at 2014-Sep-01 18:34 UTC. Time now 2014-Sep-01 19:02 UTC.
Position N 49°13' W 123°54'.

Length 139 m; draft 5.5 m.

Type: Passenger vessel. MMSI: 316001251.

Date/timePositionNaut miles runAvg speedWind from/ knotsBaromVisibWave heightAir tempDewpointWater temp
2014-Sep-01 18:34N 49°13' W 123°54'2019.7
2014-Sep-01 17:33N 49°19' W 123°26'7 7.1
2014-Sep-01 16:33N 49°23' W 123°16'1413.9
2014-Sep-01 15:34N 49°17' W 123°36'1514.4
2014-Sep-01 14:31N 49°12' W 123°57'0 0.0
2014-Sep-01 13:29N 49°12' W 123°57'0 0.0
2014-Sep-01 12:29N 49°12' W 123°57'0 0.0
2014-Sep-01 11:29N 49°12' W 123°57'0 0.0
2014-Sep-01 10:23N 49°12' W 123°57'0 0.0
2014-Sep-01 09:29N 49°12' W 123°57'0 0.0
2014-Sep-01 08:23N 49°12' W 123°57'0 0.0
2014-Sep-01 07:29N 49°12' W 123°57'0 0.0
2014-Sep-01 06:32N 49°12' W 123°57'0 0.0
2014-Sep-01 05:26N 49°12' W 123°57'0 0.0
2014-Sep-01 04:32N 49°12' W 123°57'0 0.1
2014-Sep-01 03:33N 49°12' W 123°57'1918.7
2014-Sep-01 02:34N 49°18' W 123°30'1010.1
2014-Sep-01 01:33N 49°23' W 123°16'1313.1
2014-Sep-01 00:33N 49°17' W 123°34'1615.3
2014-Aug-31 23:31N 49°12' W 123°57'1010.2
2014-Aug-31 22:34N 49°16' W 123°44'1919.2
2014-Aug-31 21:33N 49°23' W 123°17'5 4.8
2014-Aug-31 20:33N 49°20' W 123°21'2020.5
2014-Aug-31 19:34N 49°14' W 123°51'4 2.9
2014-Aug-31 18:06N 49°12' W 123°57'0 0.0
2014-Aug-31 15:33N 49°12' W 123°57'0 0.0
2014-Aug-31 14:30N 49°12' W 123°57'0 0.0
2014-Aug-31 13:24N 49°12' W 123°57'0 0.0
2014-Aug-31 12:33N 49°12' W 123°57'0 0.0
2014-Aug-31 11:30N 49°12' W 123°57'0 0.0
2014-Aug-31 10:30N 49°12' W 123°57'0 0.0
2014-Aug-31 09:30N 49°12' W 123°57'0 0.0
2014-Aug-31 08:24N 49°12' W 123°57'0 0.0
2014-Aug-31 07:30N 49°12' W 123°57'0 0.0
2014-Aug-31 06:30N 49°12' W 123°57'0 0.0
2014-Aug-31 05:21N 49°12' W 123°57'0 0.0
2014-Aug-31 03:12N 49°12' W 123°57'0 0.0
2014-Aug-31 02:12N 49°12' W 123°57'0 0.0
2014-Aug-31 01:27N 49°12' W 123°57'0 0.0
2014-Aug-31 00:27N 49°12' W 123°57'0 0.0
2014-Aug-30 23:28N 49°12' W 123°57'1415.8
2014-Aug-30 22:33N 49°17' W 123°37'1513.9
2014-Aug-30 21:30N 49°23' W 123°16'5 5.6
2014-Aug-30 20:34N 49°19' W 123°22'2020.3
2014-Aug-30 19:34N 49°14' W 123°52'2 2.4
2014-Aug-30 18:34N 49°13' W 123°56'2019.8
2014-Aug-30 17:34N 49°19' W 123°27'8 7.8
2014-Aug-30 16:33N 49°23' W 123°16'1414.0
2014-Aug-30 15:33N 49°17' W 123°36'1510.7
2014-Aug-30 14:10N 49°12' W 123°57'0 0.0
2014-Aug-30 13:31N 49°12' W 123°57'0 0.0
2014-Aug-30 12:31N 49°12' W 123°57'0 0.0
2014-Aug-30 10:22N 49°12' W 123°57'0 0.0
2014-Aug-30 09:31N 49°12' W 123°57'0 0.0
2014-Aug-30 08:31N 49°12' W 123°57'0 0.0
2014-Aug-30 07:10N 49°12' W 123°57'0 0.0
2014-Aug-30 06:19N 49°12' W 123°57'0 0.0
2014-Aug-30 05:31N 49°12' W 123°57'0 0.0
2014-Aug-30 04:07N 49°12' W 123°57'610.1
2014-Aug-30 03:34N 49°15' W 123°50'2019.6
2014-Aug-30 02:33N 49°20' W 123°21'4 4.3
2014-Aug-30 01:33N 49°23' W 123°17'1818.4
2014-Aug-30 00:33N 49°15' W 123°43'10 9.7
2014-Aug-29 23:30N 49°12' W 123°57'1617.1
2014-Aug-29 22:33N 49°18' W 123°34'13 9.1
2014-Aug-29 21:09N 49°23' W 123°16'1016.8
2014-Aug-29 20:33N 49°17' W 123°29'1919.0
2014-Aug-29 19:32N 49°12' W 123°57'7 7.3
2014-Aug-29 18:34N 49°15' W 123°47'1616.0
2014-Aug-29 17:33N 49°19' W 123°23'6 6.2
2014-Aug-29 16:33N 49°23' W 123°16'1414.0
2014-Aug-29 15:33N 49°16' W 123°35'1514.9
2014-Aug-29 14:33N 49°12' W 123°57'0 0.0
2014-Aug-29 13:27N 49°12' W 123°57'0 0.0
2014-Aug-29 12:27N 49°12' W 123°57'0 0.0
2014-Aug-29 11:27N 49°12' W 123°57'0 0.0
2014-Aug-29 10:15N 49°12' W 123°57'0 0.0
2014-Aug-29 09:33N 49°12' W 123°57'0 0.0
2014-Aug-29 07:30N 49°12' W 123°57'0 0.0
2014-Aug-29 05:18N 49°12' W 123°57'0 0.2
2014-Aug-29 03:34N 49°12' W 123°57'1919.2
2014-Aug-29 02:34N 49°19' W 123°30'10 9.5
2014-Aug-29 01:34N 49°23' W 123°16'1414.0
2014-Aug-29 00:34N 49°17' W 123°36'1511.0
2014-Aug-28 23:12N 49°12' W 123°57'1117.2
2014-Aug-28 22:33N 49°16' W 123°42'1813.8
2014-Aug-28 21:16N 49°23' W 123°16'6 8.2
2014-Aug-28 20:33N 49°19' W 123°23'2019.9
2014-Aug-28 19:33N 49°14' W 123°52'2 2.1
2014-Aug-28 18:33N 49°13' W 123°55'1919.4
2014-Aug-28 17:33N 49°19' W 123°27'8 7.6
2014-Aug-28 16:30N 49°23' W 123°16'1415.2
2014-Aug-28 15:33N 49°16' W 123°36'1514.5
2014-Aug-28 14:33N 49°12' W 123°57'0 0.0
2014-Aug-28 13:23N 49°12' W 123°57'0 0.0
2014-Aug-28 12:29N 49°12' W 123°57'0 0.0
2014-Aug-28 10:11N 49°12' W 123°57'0 0.0
2014-Aug-28 07:26N 49°12' W 123°57'0 0.0
2014-Aug-28 05:32N 49°12' W 123°57'0 0.0
2014-Aug-28 03:29N 49°12' W 123°57'0 0.0
2014-Aug-28 02:14N 49°12' W 123°57'0 0.0
2014-Aug-28 01:05N 49°12' W 123°57'0 0.0
2014-Aug-27 23:23N 49°12' W 123°57'1417.3
2014-Aug-27 22:33N 49°17' W 123°37'1512.6
2014-Aug-27 21:24N 49°23' W 123°16'8 9.9
2014-Aug-27 20:33N 49°18' W 123°27'2019.8
2014-Aug-27 19:33N 49°13' W 123°56'1 0.2
2014-Aug-27 13:06N 49°12' W 123°57'0 0.0
2014-Aug-27 12:33N 49°12' W 123°57'0 0.0
2014-Aug-27 11:33N 49°12' W 123°57'0 0.0
2014-Aug-27 10:33N 49°12' W 123°57'0 0.0
2014-Aug-27 09:33N 49°12' W 123°57'0 0.0
2014-Aug-27 08:33N 49°12' W 123°57'0 0.0
2014-Aug-27 06:21N 49°12' W 123°57'0 0.0
2014-Aug-27 04:33N 49°12' W 123°57'0 0.0
2014-Aug-26 23:15N 49°12' W 123°57'1217.0
2014-Aug-26 22:34N 49°17' W 123°41'1712.9
2014-Aug-26 21:13N 49°23' W 123°16'5 8.0
2014-Aug-26 20:33N 49°19' W 123°22'2019.8
2014-Aug-26 19:33N 49°14' W 123°52'4 2.1
2014-Aug-26 17:32N 49°12' W 123°57'0 0.0
2014-Aug-26 15:28N 49°12' W 123°57'0 0.0
2014-Aug-26 14:16N 49°12' W 123°57'0 0.0
2014-Aug-26 13:25N 49°12' W 123°57'0 0.0
2014-Aug-26 12:04N 49°12' W 123°57'0 0.0
2014-Aug-26 11:28N 49°12' W 123°57'0 0.0
2014-Aug-26 10:28N 49°12' W 123°57'0 0.0
2014-Aug-26 09:22N 49°12' W 123°57'0 0.0
2014-Aug-26 08:22N 49°12' W 123°57'0 0.0
2014-Aug-26 07:28N 49°12' W 123°57'0 0.0
2014-Aug-26 06:28N 49°12' W 123°57'0 0.0
2014-Aug-26 05:28N 49°12' W 123°57'2 0.8
2014-Aug-26 03:34N 49°13' W 123°55'2019.8
2014-Aug-26 02:34N 49°19' W 123°27'8 7.7
2014-Aug-26 01:34N 49°23' W 123°16'1716.6
2014-Aug-26 00:33N 49°16' W 123°40'1211.1
2014-Aug-25 23:27N 49°12' W 123°57'1213.3
2014-Aug-25 22:33N 49°16' W 123°41'1716.9
2014-Aug-25 21:33N 49°23' W 123°16'7 6.6
2014-Aug-25 20:33N 49°19' W 123°24'2019.8
2014-Aug-25 19:33N 49°13' W 123°54'1 0.5
2014-Aug-25 18:33N 49°14' W 123°53'2019.8
2014-Aug-25 17:34N 49°19' W 123°24'6 5.8
2014-Aug-25 16:28N 49°23' W 123°16'1516.9
2014-Aug-25 15:34N 49°15' W 123°37'14 1.9
2014-Aug-25 08:23N 49°12' W 123°57'1416.6
2014-Aug-25 07:33N 49°17' W 123°38'1512.4
2014-Aug-25 06:20N 49°23' W 123°16'1215.2
2014-Aug-25 05:34N 49°17' W 123°32'1712.8
2014-Aug-25 04:13N 49°12' W 123°57'6 9.7
2014-Aug-25 03:33N 49°15' W 123°49'1919.5
2014-Aug-25 02:34N 49°20' W 123°20'3 3.5
2014-Aug-25 01:33N 49°23' W 123°16'1817.8
2014-Aug-25 00:33N 49°15' W 123°41'11 9.2
2014-Aug-24 23:20N 49°12' W 123°57'1316.5
2014-Aug-24 22:34N 49°17' W 123°39'1612.6
2014-Aug-24 21:17N 49°23' W 123°16'6 8.9
2014-Aug-24 20:33N 49°19' W 123°24'2019.6
2014-Aug-24 19:33N 49°13' W 123°53'3 2.6
2014-Aug-24 18:16N 49°12' W 123°57'0 0.0
2014-Aug-24 16:16N 49°12' W 123°57'0 0.0
2014-Aug-24 15:28N 49°12' W 123°57'0 0.0
2014-Aug-24 14:04N 49°12' W 123°57'0 0.0
2014-Aug-24 13:16N 49°12' W 123°57'0 0.0
2014-Aug-24 12:25N 49°12' W 123°57'0 0.0
2014-Aug-24 11:25N 49°12' W 123°57'0 0.0
2014-Aug-24 07:13N 49°12' W 123°57'0 0.0
2014-Aug-24 06:28N 49°12' W 123°57'0 0.0
2014-Aug-23 23:17N 49°12' W 123°57'1317.6
2014-Aug-23 22:33N 49°17' W 123°39'10 4.8
2014-Aug-23 20:33N 49°19' W 123°25'2020.2
2014-Aug-23 19:33N 49°13' W 123°54'4 0.2
2014-Aug-23 03:33N 49°15' W 123°49'2019.6
2014-Aug-23 02:33N 49°20' W 123°21'4 3.7
2014-Aug-23 01:33N 49°23' W 123°16'1716.9
2014-Aug-23 00:34N 49°16' W 123°39'1212.1
2014-Aug-22 23:32N 49°12' W 123°57'1312.8
2014-Aug-22 22:34N 49°17' W 123°40'1613.0
2014-Aug-22 21:18N 49°23' W 123°16'7 9.0
2014-Aug-22 20:33N 49°18' W 123°24'2020.3
2014-Aug-22 19:33N 49°13' W 123°54'0 0.1
2014-Aug-22 18:34N 49°13' W 123°54'  

Dump ship's entire track history